Josita B — 9HA3758 — position and weather

sailwx.info

Track history (hours):
 
Tides and Currents Weather Stations Pressure Air Temp Water Temp Dewpoint Dewpoint Depression Visibility Wind Speed Wind Dir Waves Ship Positions

Josita B

Last reported at 2018-Jan-19 07:28 UTC. Time now 2018-Jan-19 07:53 UTC.
Position N 28°29' W 016°14'.

Length 170 m; draft 7 m.

Type: Ship (hazmat cat C). MMSI: 229966000.

Date/timePositionNaut miles runAvg speedWind from/ knotsBaromVisibWave heightAir tempDewpointWater temp
2018-Jan-19 07:28N 28°29' W 016°14'0 0.0
2018-Jan-19 06:59N 28°29' W 016°14'0 0.0
2018-Jan-19 06:28N 28°29' W 016°14'0 0.0
2018-Jan-19 05:59N 28°29' W 016°14'1 2.7
2018-Jan-19 05:30N 28°28' W 016°13'4 8.1
2018-Jan-19 05:00N 28°26' W 016°09'611.3
2018-Jan-19 04:30N 28°24' W 016°03'612.5
2018-Jan-19 04:00N 28°22' W 015°57'612.4
2018-Jan-19 03:30N 28°20' W 015°50'612.7
2018-Jan-19 03:00N 28°18' W 015°43'612.9
2018-Jan-19 02:30N 28°16' W 015°36'612.4
2018-Jan-19 01:59N 28°14' W 015°29'611.7
2018-Jan-19 01:29N 28°12' W 015°23'4 8.9
2018-Jan-19 01:00N 28°07' W 015°23'2 3.6
2018-Jan-19 00:29N 28°09' W 015°25'0 0.1
2018-Jan-18 23:59N 28°09' W 015°25'0 0.0
2018-Jan-18 23:29N 28°09' W 015°25'0 0.0
2018-Jan-18 22:59N 28°09' W 015°25'0 0.0
2018-Jan-18 22:29N 28°09' W 015°25'0 0.0
2018-Jan-18 21:50N 28°09' W 015°25'0 0.0
2018-Jan-18 21:23N 28°09' W 015°25'0 0.0
2018-Jan-18 20:53N 28°09' W 015°25'0 0.0
2018-Jan-18 20:20N 28°09' W 015°25'0 0.0
2018-Jan-18 19:53N 28°09' W 015°25'0 0.0
2018-Jan-18 19:23N 28°09' W 015°25'0 0.0
2018-Jan-18 18:53N 28°09' W 015°25'0 0.0
2018-Jan-18 18:26N 28°09' W 015°25'0 0.0
2018-Jan-18 17:53N 28°09' W 015°25'0 0.0
2018-Jan-18 17:26N 28°09' W 015°25'0 0.0
2018-Jan-18 16:56N 28°09' W 015°25'0 0.0
2018-Jan-18 16:26N 28°09' W 015°25'0 0.0
2018-Jan-18 15:56N 28°09' W 015°25'0 0.0
2018-Jan-18 15:26N 28°09' W 015°25'0 0.0
2018-Jan-18 14:56N 28°09' W 015°25'0 0.0
2018-Jan-18 14:29N 28°09' W 015°25'0 0.0
2018-Jan-18 13:59N 28°09' W 015°25'0 0.0
2018-Jan-18 13:29N 28°09' W 015°25'0 0.0
2018-Jan-18 12:59N 28°09' W 015°25'0 0.0
2018-Jan-18 12:29N 28°09' W 015°25'0 0.0
2018-Jan-18 11:59N 28°09' W 015°25'0 0.0
2018-Jan-18 11:29N 28°09' W 015°25'0 0.0
2018-Jan-18 10:59N 28°09' W 015°25'0 0.0
2018-Jan-18 10:29N 28°09' W 015°25'0 0.0
2018-Jan-18 09:59N 28°09' W 015°25'0 0.0
2018-Jan-18 09:29N 28°09' W 015°25'0 0.0
2018-Jan-18 08:59N 28°09' W 015°25'0 0.0
2018-Jan-18 08:29N 28°09' W 015°25'0 0.0
2018-Jan-18 07:59N 28°09' W 015°25'0 0.0
2018-Jan-18 07:29N 28°09' W 015°25'0 0.0
2018-Jan-18 06:50N 28°09' W 015°25'0 0.0
2018-Jan-18 06:20N 28°09' W 015°25'0 0.0
2018-Jan-18 05:53N 28°09' W 015°25'0 0.0
2018-Jan-18 05:20N 28°09' W 015°25'0 0.0
2018-Jan-18 04:53N 28°09' W 015°25'0 0.0
2018-Jan-18 04:23N 28°09' W 015°25'0 0.0
2018-Jan-18 03:56N 28°09' W 015°25'0 0.0
2018-Jan-18 03:26N 28°09' W 015°25'0 0.0
2018-Jan-18 02:53N 28°09' W 015°25'0 0.0
2018-Jan-18 02:26N 28°09' W 015°25'0 0.0
2018-Jan-18 01:56N 28°09' W 015°25'0 0.0
2018-Jan-18 01:26N 28°09' W 015°25'0 0.0
2018-Jan-18 00:56N 28°09' W 015°25'0 0.0
2018-Jan-17 23:59N 28°09' W 015°25'0 0.0
2018-Jan-17 23:56N 28°09' W 015°25'  
2018-Jan-12 14:44N 41°21' E 002°10'0 0.0
2018-Jan-12 14:20N 41°22' E 002°10'0 0.0
2018-Jan-12 13:59N 41°21' E 002°10'0 0.0
2018-Jan-12 13:20N 41°21' E 002°10'0 0.0
2018-Jan-12 12:41N 41°22' E 002°10'0 0.0
2018-Jan-12 12:14N 41°22' E 002°10'0 0.0
2018-Jan-12 11:53N 41°21' E 002°10'0 0.0
2018-Jan-12 11:29N 41°21' E 002°10'0 0.0
2018-Jan-12 10:53N 41°21' E 002°10'0 0.0
2018-Jan-12 10:23N 41°21' E 002°10'0 0.0
2018-Jan-12 09:59N 41°22' E 002°10'0 0.0
2018-Jan-12 09:29N 41°22' E 002°10'0 0.0
2018-Jan-12 08:59N 41°21' E 002°10'0 0.0
2018-Jan-12 08:29N 41°22' E 002°10'0 0.0
2018-Jan-12 05:17N 41°21' E 002°10'0 0.0
2018-Jan-12 04:59N 41°21' E 002°10'0 0.0
2018-Jan-12 04:17N 41°21' E 002°10'0 0.0
2018-Jan-12 03:59N 41°21' E 002°10'0 0.0
2018-Jan-12 03:26N 41°21' E 002°10'0 0.0
2018-Jan-12 02:56N 41°21' E 002°10'0 0.0
2018-Jan-12 02:29N 41°21' E 002°10'0 0.0
2018-Jan-12 01:23N 41°22' E 002°10'0 0.0
2018-Jan-12 00:56N 41°22' E 002°10'0 0.0
2018-Jan-12 00:29N 41°21' E 002°10'0 0.0
2018-Jan-11 23:59N 41°22' E 002°10'0 0.0
2018-Jan-11 23:29N 41°21' E 002°10'0 0.0
2018-Jan-11 22:59N 41°21' E 002°10'0 0.0
2018-Jan-11 22:29N 41°21' E 002°10'0 0.0
2018-Jan-11 21:59N 41°21' E 002°10'0 0.0
2018-Jan-11 21:20N 41°22' E 002°10'0 0.0
2018-Jan-11 20:59N 41°22' E 002°10'0 0.0
2018-Jan-11 20:17N 41°21' E 002°10'0 0.0
2018-Jan-11 19:50N 41°21' E 002°10'0 0.0
2018-Jan-11 19:29N 41°22' E 002°10'0 0.0
2018-Jan-11 18:59N 41°22' E 002°10'0 0.0
2018-Jan-11 18:29N 41°21' E 002°10'0 0.0
2018-Jan-11 17:59N 41°22' E 002°10'0 0.0
2018-Jan-11 17:29N 41°21' E 002°10'0 0.0
2018-Jan-11 16:59N 41°21' E 002°10'0 0.0
2018-Jan-11 16:29N 41°21' E 002°10'1 3.1
2018-Jan-11 16:00N 41°20' E 002°10'4 7.4
2018-Jan-11 15:30N 41°17' E 002°11'1 2.1
2018-Jan-11 15:00N 41°15' E 002°11'816.3
2018-Jan-11 14:30N 41°09' E 002°04'917.1
2018-Jan-11 13:58N 41°02' E 001°56'203 4.4
2018-Jan-09 16:10N 38°09' W 000°22'415.4
2018-Jan-09 15:55N 38°05' W 000°22'815.8
2018-Jan-09 15:23N 37°57' W 000°25'616.0
2018-Jan-09 15:00N 37°51' W 000°26'815.7
2018-Jan-09 14:30N 37°43' W 000°27'816.1
2018-Jan-09 14:00N 37°36' W 000°29'815.3
2018-Jan-09 13:30N 37°29' W 000°35'816.1
2018-Jan-09 13:00N 37°24' W 000°43'1016.0
2018-Jan-09 12:24N 37°18' W 000°52'  
Track history (hours):
 
Tides and Currents Weather Stations Pressure Air Temp Water Temp Dewpoint Dewpoint Depression Visibility Wind Speed Wind Dir Waves Ship Positions

Josita B

Last reported at 2018-Jan-19 07:28 UTC. Time now 2018-Jan-19 07:53 UTC.
Position N 28°29' W 016°14'.

Length 170 m; draft 7 m.

Type: Ship (hazmat cat C). MMSI: 229966000.

Date/timePositionNaut miles runAvg speedWind from/ knotsBaromVisibWave heightAir tempDewpointWater temp
2018-Jan-19 07:28N 28°29' W 016°14'0 0.0
2018-Jan-19 06:59N 28°29' W 016°14'0 0.0
2018-Jan-19 06:28N 28°29' W 016°14'0 0.0
2018-Jan-19 05:59N 28°29' W 016°14'1 2.7
2018-Jan-19 05:30N 28°28' W 016°13'4 8.1
2018-Jan-19 05:00N 28°26' W 016°09'611.3
2018-Jan-19 04:30N 28°24' W 016°03'612.5
2018-Jan-19 04:00N 28°22' W 015°57'612.4
2018-Jan-19 03:30N 28°20' W 015°50'612.7
2018-Jan-19 03:00N 28°18' W 015°43'612.9
2018-Jan-19 02:30N 28°16' W 015°36'612.4
2018-Jan-19 01:59N 28°14' W 015°29'611.7
2018-Jan-19 01:29N 28°12' W 015°23'4 8.9
2018-Jan-19 01:00N 28°07' W 015°23'2 3.6
2018-Jan-19 00:29N 28°09' W 015°25'0 0.1
2018-Jan-18 23:59N 28°09' W 015°25'0 0.0
2018-Jan-18 23:29N 28°09' W 015°25'0 0.0
2018-Jan-18 22:59N 28°09' W 015°25'0 0.0
2018-Jan-18 22:29N 28°09' W 015°25'0 0.0
2018-Jan-18 21:50N 28°09' W 015°25'0 0.0
2018-Jan-18 21:23N 28°09' W 015°25'0 0.0
2018-Jan-18 20:53N 28°09' W 015°25'0 0.0
2018-Jan-18 20:20N 28°09' W 015°25'0 0.0
2018-Jan-18 19:53N 28°09' W 015°25'0 0.0
2018-Jan-18 19:23N 28°09' W 015°25'0 0.0
2018-Jan-18 18:53N 28°09' W 015°25'0 0.0
2018-Jan-18 18:26N 28°09' W 015°25'0 0.0
2018-Jan-18 17:53N 28°09' W 015°25'0 0.0
2018-Jan-18 17:26N 28°09' W 015°25'0 0.0
2018-Jan-18 16:56N 28°09' W 015°25'0 0.0
2018-Jan-18 16:26N 28°09' W 015°25'0 0.0
2018-Jan-18 15:56N 28°09' W 015°25'0 0.0
2018-Jan-18 15:26N 28°09' W 015°25'0 0.0
2018-Jan-18 14:56N 28°09' W 015°25'0 0.0
2018-Jan-18 14:29N 28°09' W 015°25'0 0.0
2018-Jan-18 13:59N 28°09' W 015°25'0 0.0
2018-Jan-18 13:29N 28°09' W 015°25'0 0.0
2018-Jan-18 12:59N 28°09' W 015°25'0 0.0
2018-Jan-18 12:29N 28°09' W 015°25'0 0.0
2018-Jan-18 11:59N 28°09' W 015°25'0 0.0
2018-Jan-18 11:29N 28°09' W 015°25'0 0.0
2018-Jan-18 10:59N 28°09' W 015°25'0 0.0
2018-Jan-18 10:29N 28°09' W 015°25'0 0.0
2018-Jan-18 09:59N 28°09' W 015°25'0 0.0
2018-Jan-18 09:29N 28°09' W 015°25'0 0.0
2018-Jan-18 08:59N 28°09' W 015°25'0 0.0
2018-Jan-18 08:29N 28°09' W 015°25'0 0.0
2018-Jan-18 07:59N 28°09' W 015°25'0 0.0
2018-Jan-18 07:29N 28°09' W 015°25'0 0.0
2018-Jan-18 06:50N 28°09' W 015°25'0 0.0
2018-Jan-18 06:20N 28°09' W 015°25'0 0.0
2018-Jan-18 05:53N 28°09' W 015°25'0 0.0
2018-Jan-18 05:20N 28°09' W 015°25'0 0.0
2018-Jan-18 04:53N 28°09' W 015°25'0 0.0
2018-Jan-18 04:23N 28°09' W 015°25'0 0.0
2018-Jan-18 03:56N 28°09' W 015°25'0 0.0
2018-Jan-18 03:26N 28°09' W 015°25'0 0.0
2018-Jan-18 02:53N 28°09' W 015°25'0 0.0
2018-Jan-18 02:26N 28°09' W 015°25'0 0.0
2018-Jan-18 01:56N 28°09' W 015°25'0 0.0
2018-Jan-18 01:26N 28°09' W 015°25'0 0.0
2018-Jan-18 00:56N 28°09' W 015°25'0 0.0
2018-Jan-17 23:59N 28°09' W 015°25'0 0.0
2018-Jan-17 23:56N 28°09' W 015°25'  
2018-Jan-12 14:44N 41°21' E 002°10'0 0.0
2018-Jan-12 14:20N 41°22' E 002°10'0 0.0
2018-Jan-12 13:59N 41°21' E 002°10'0 0.0
2018-Jan-12 13:20N 41°21' E 002°10'0 0.0
2018-Jan-12 12:41N 41°22' E 002°10'0 0.0
2018-Jan-12 12:14N 41°22' E 002°10'0 0.0
2018-Jan-12 11:53N 41°21' E 002°10'0 0.0
2018-Jan-12 11:29N 41°21' E 002°10'0 0.0
2018-Jan-12 10:53N 41°21' E 002°10'0 0.0
2018-Jan-12 10:23N 41°21' E 002°10'0 0.0
2018-Jan-12 09:59N 41°22' E 002°10'0 0.0
2018-Jan-12 09:29N 41°22' E 002°10'0 0.0
2018-Jan-12 08:59N 41°21' E 002°10'0 0.0
2018-Jan-12 08:29N 41°22' E 002°10'0 0.0
2018-Jan-12 05:17N 41°21' E 002°10'0 0.0
2018-Jan-12 04:59N 41°21' E 002°10'0 0.0
2018-Jan-12 04:17N 41°21' E 002°10'0 0.0
2018-Jan-12 03:59N 41°21' E 002°10'0 0.0
2018-Jan-12 03:26N 41°21' E 002°10'0 0.0
2018-Jan-12 02:56N 41°21' E 002°10'0 0.0
2018-Jan-12 02:29N 41°21' E 002°10'0 0.0
2018-Jan-12 01:23N 41°22' E 002°10'0 0.0
2018-Jan-12 00:56N 41°22' E 002°10'0 0.0
2018-Jan-12 00:29N 41°21' E 002°10'0 0.0
2018-Jan-11 23:59N 41°22' E 002°10'0 0.0
2018-Jan-11 23:29N 41°21' E 002°10'0 0.0
2018-Jan-11 22:59N 41°21' E 002°10'0 0.0
2018-Jan-11 22:29N 41°21' E 002°10'0 0.0
2018-Jan-11 21:59N 41°21' E 002°10'0 0.0
2018-Jan-11 21:20N 41°22' E 002°10'0 0.0
2018-Jan-11 20:59N 41°22' E 002°10'0 0.0
2018-Jan-11 20:17N 41°21' E 002°10'0 0.0
2018-Jan-11 19:50N 41°21' E 002°10'0 0.0
2018-Jan-11 19:29N 41°22' E 002°10'0 0.0
2018-Jan-11 18:59N 41°22' E 002°10'0 0.0
2018-Jan-11 18:29N 41°21' E 002°10'0 0.0
2018-Jan-11 17:59N 41°22' E 002°10'0 0.0
2018-Jan-11 17:29N 41°21' E 002°10'0 0.0
2018-Jan-11 16:59N 41°21' E 002°10'0 0.0
2018-Jan-11 16:29N 41°21' E 002°10'1 3.1
2018-Jan-11 16:00N 41°20' E 002°10'4 7.4
2018-Jan-11 15:30N 41°17' E 002°11'1 2.1
2018-Jan-11 15:00N 41°15' E 002°11'816.3
2018-Jan-11 14:30N 41°09' E 002°04'917.1
2018-Jan-11 13:58N 41°02' E 001°56'203 4.4
2018-Jan-09 16:10N 38°09' W 000°22'415.4
2018-Jan-09 15:55N 38°05' W 000°22'815.8
2018-Jan-09 15:23N 37°57' W 000°25'616.0
2018-Jan-09 15:00N 37°51' W 000°26'815.7
2018-Jan-09 14:30N 37°43' W 000°27'816.1
2018-Jan-09 14:00N 37°36' W 000°29'815.3
2018-Jan-09 13:30N 37°29' W 000°35'816.1
2018-Jan-09 13:00N 37°24' W 000°43'1016.0
2018-Jan-09 12:24N 37°18' W 000°52'  

Dump ship's entire track history